Airfield :
LOGIN :

Register | Disclaimer

   EN    FR    IT 

 










Legend :    VFR   Marginal VFR   IFR   Intensive IFR   Very Intensive IFR
Visi :
Ceiling :
>= 8 km
>= 3000ft
5 to 8 km
1000 to 3000 ft
1500m to 5 km
500 to 1000 ft
800 to 1500m
200 to 500 ft
< 800m
< 200 ft
Symbols :   Thunderstorms  Fog  Heavy snow  Heavy precipitations  Wind > 20 kt
SIGMETs :     Misc.  Thunderstorms  Icing  Turbulence  Mountain Waves  Volcanic Ashes







- Airport Elevation : 243 ft
- IATA code : HOV


ENOV - Ørsta-Volda , Hovden

CURRENT METAR :
  • 210720Z 24004KT 200V280 9999 VCSH FEW025 BKN051 12/07 Q1020 RMK WIND 2175FT 24013KT

EXPIRED METARs :
  • 210650Z 20004KT 140V250 9999 VCSH FEW025 BKN051 12/07 Q1020 RMK WIND 2175FT 22010KT
  • 210620Z 21003KT 170V280 9999 VCSH FEW025 BKN048 12/07 Q1020 RMK WIND 2175FT 22012KT
  • 210550Z 18004KT 110V240 9999 VCSH FEW020 BKN051 12/06 Q1019 RMK WIND 2175FT 25017KT
  • 210450Z 21004KT 120V250 9999 VCSH FEW016 SCT034 BKN053 11/07 Q1019 RMK WIND 2175FT 24018KT

TAF N/A
No reported NOTAMs for that airfield.



MET'MAP, your aeronautical weather chart ! - Copyright ORBIFLY December 2007 - Disclaimer

ORBIFLY MET'MAP TEAM :

Programming & Development : Alexandra Zaïnal
Concept & Development : Baudouin d'Aumeries
Co-Development & Prog : Marc-Olivier Méhu
Technical & hardware support : Manuel Goepfert

Contact : metmap@orbifly.com




SOURCES & CREDITS :

   NOAA